createdAt,value
2023-04-24T00:01:52.927Z,99808.91
2023-04-24T00:04:27.099Z,99815.22
2023-04-24T00:07:03.386Z,99800.13
2023-04-24T00:09:31.783Z,99806.66
2023-04-24T00:12:05.630Z,99792.16
2023-04-24T00:14:37.305Z,99793.75
2023-04-24T00:17:05.084Z,99807.81
2023-04-24T00:19:32.093Z,99807.28
2023-04-24T00:21:59.798Z,99807.59
2023-04-24T00:24:31.046Z,99813.81
2023-04-24T00:26:58.154Z,99817.31
2023-04-24T00:29:24.817Z,99817.59
2023-04-24T00:31:51.938Z,99820.09
2023-04-24T00:34:19.276Z,99821.84
2023-04-24T00:36:46.978Z,99828.09
2023-04-24T00:39:13.749Z,99830.75
2023-04-24T00:41:40.524Z,99820.09
2023-04-24T00:44:07.368Z,99816.06
2023-04-24T00:46:34.296Z,99810.81
2023-04-24T00:49:01.223Z,99822.88
2023-04-24T00:51:31.999Z,99822.63
2023-04-24T00:53:58.936Z,99822.66
2023-04-24T00:56:25.834Z,99817.25
2023-04-24T00:58:52.816Z,99827.09
2023-04-24T01:01:23.892Z,99815.16
2023-04-24T01:03:52.681Z,99824.03
2023-04-24T01:06:23.970Z,99820.88
2023-04-24T01:08:51.015Z,99822.19
2023-04-24T01:11:19.180Z,99818.34
2023-04-24T01:13:46.193Z,99810.16
2023-04-24T01:16:18.505Z,99812.84
2023-04-24T01:18:45.506Z,99822.53
2023-04-24T01:21:14.699Z,99832.13
2023-04-24T01:23:44.679Z,99821.00
2023-04-24T01:26:11.666Z,99813.81
2023-04-24T01:28:38.749Z,99815.88
2023-04-24T01:31:06.675Z,99821.09
2023-04-24T01:33:33.675Z,99819.09
2023-04-24T01:36:00.995Z,99822.06
2023-04-24T01:38:28.414Z,99819.72
2023-04-24T01:40:58.260Z,99817.22
2023-04-24T01:43:25.718Z,99821.47
2023-04-24T01:45:52.564Z,99822.16
2023-04-24T01:48:19.362Z,99820.00
2023-04-24T01:50:48.126Z,99826.50
2023-04-24T01:53:14.872Z,99823.16
2023-04-24T01:55:42.683Z,99811.63
2023-04-24T01:58:09.605Z,99811.91
2023-04-24T02:00:36.459Z,99816.06
2023-04-24T02:03:03.723Z,99814.47
2023-04-24T02:05:30.703Z,99822.69
2023-04-24T02:08:00.107Z,99821.22
2023-04-24T02:10:26.956Z,99827.09
2023-04-24T02:12:53.636Z,99828.34
2023-04-24T02:15:24.063Z,99825.28
2023-04-24T02:17:50.920Z,99819.44
2023-04-24T02:20:18.593Z,99820.78
2023-04-24T02:22:46.115Z,99831.09
2023-04-24T02:25:12.853Z,99828.00
2023-04-24T02:27:39.704Z,99828.34
2023-04-24T02:30:07.379Z,99823.41
2023-04-24T02:32:34.974Z,99824.53
2023-04-24T02:35:02.567Z,99816.94
2023-04-24T02:37:29.344Z,99813.81
2023-04-24T02:39:56.118Z,99831.47
2023-04-24T02:42:22.900Z,99821.34
2023-04-24T02:44:49.580Z,99827.22
2023-04-24T02:47:16.367Z,99807.47
2023-04-24T02:49:43.538Z,99822.69
2023-04-24T02:52:11.751Z,99833.78
2023-04-24T02:54:38.558Z,99827.44
2023-04-24T02:57:05.542Z,99824.78
2023-04-24T02:59:32.852Z,99820.50
2023-04-24T03:01:59.796Z,99827.25
2023-04-24T03:04:27.304Z,99827.44
2023-04-24T03:06:55.777Z,99827.78
2023-04-24T03:09:22.857Z,99827.28
2023-04-24T03:11:50.462Z,99834.00
2023-04-24T03:14:17.699Z,99830.47
2023-04-24T03:16:44.596Z,99825.75
2023-04-24T03:19:11.367Z,99826.31
2023-04-24T03:21:46.761Z,99819.56
2023-04-24T03:24:13.986Z,99828.59
2023-04-24T03:26:41.494Z,99828.56
2023-04-24T03:29:28.315Z,99829.03
2023-04-24T03:31:57.209Z,99834.44
2023-04-24T03:34:24.157Z,99837.59
2023-04-24T03:36:51.299Z,99841.56
2023-04-24T03:39:18.106Z,99838.72
2023-04-24T03:41:52.221Z,99823.47
2023-04-24T03:44:23.771Z,99823.72
2023-04-24T03:46:51.055Z,99829.16
2023-04-24T03:49:20.460Z,99830.47
2023-04-24T03:51:48.525Z,99841.03
2023-04-24T03:54:22.086Z,99840.91
2023-04-24T03:56:50.731Z,99855.78
2023-04-24T03:59:17.602Z,99861.28
2023-04-24T04:01:49.050Z,99863.75
2023-04-24T04:04:17.889Z,99853.97
2023-04-24T04:06:45.672Z,99851.59
2023-04-24T04:09:12.821Z,99869.53
2023-04-24T04:11:39.473Z,99877.19
2023-04-24T04:14:06.401Z,99868.56
2023-04-24T04:16:35.373Z,99872.25
2023-04-24T04:19:04.234Z,99880.66
2023-04-24T04:21:32.426Z,99883.00
2023-04-24T04:24:21.882Z,99898.44
2023-04-24T04:26:52.064Z,99894.81
2023-04-24T04:29:32.422Z,99899.59
2023-04-24T04:32:00.603Z,99894.25
2023-04-24T04:34:27.899Z,99900.34
2023-04-24T04:36:54.799Z,99911.84
2023-04-24T04:39:38.171Z,99918.09
2023-04-24T04:42:12.648Z,99921.34
2023-04-24T04:44:42.068Z,99925.38
2023-04-24T04:47:13.172Z,99920.69
2023-04-24T04:49:40.834Z,99938.41
2023-04-24T04:52:13.599Z,99934.38
2023-04-24T04:54:40.834Z,99933.31
2023-04-24T04:57:07.725Z,99950.03
2023-04-24T04:59:35.910Z,99961.66
2023-04-24T05:02:07.271Z,99958.03
2023-04-24T05:04:34.429Z,99965.06
2023-04-24T05:07:01.510Z,99980.34
2023-04-24T05:09:31.217Z,99988.75
2023-04-24T05:12:03.236Z,99986.94
2023-04-24T05:14:34.130Z,99997.94
2023-04-24T05:17:01.372Z,99999.69
2023-04-24T05:19:28.258Z,100010.56
2023-04-24T05:21:55.350Z,99996.34
2023-04-24T05:24:22.413Z,100022.88
2023-04-24T05:27:27.534Z,100023.06
2023-04-24T05:29:54.464Z,100040.16
2023-04-24T05:32:21.691Z,100026.75
2023-04-24T05:34:48.465Z,100030.47
2023-04-24T05:37:15.414Z,100040.78
2023-04-24T05:39:42.876Z,100045.19
2023-04-24T05:42:10.564Z,100051.56
2023-04-24T05:44:37.349Z,100063.13
2023-04-24T05:47:05.012Z,100073.03
2023-04-24T05:49:32.610Z,100073.03
2023-04-24T05:51:59.560Z,100078.41
2023-04-24T05:54:26.437Z,100091.06
2023-04-24T05:56:55.496Z,100085.22
2023-04-24T05:59:32.527Z,100103.59
2023-04-24T06:01:59.398Z,100102.09
2023-04-24T06:04:26.593Z,100099.22
2023-04-24T06:06:56.972Z,100116.53
2023-04-24T06:09:24.160Z,100114.03
2023-04-24T06:11:53.940Z,100126.66
2023-04-24T06:14:23.976Z,100124.22
2023-04-24T06:17:17.438Z,100124.81
2023-04-24T06:19:45.978Z,100126.66
2023-04-24T06:22:13.183Z,100134.66
2023-04-24T06:24:41.255Z,100144.50
2023-04-24T06:27:08.691Z,100144.31
2023-04-24T06:29:37.390Z,100134.00
2023-04-24T06:32:04.166Z,100147.25
2023-04-24T06:34:34.978Z,100161.75
2023-04-24T06:37:03.272Z,100165.22
2023-04-24T06:39:29.975Z,100174.16
2023-04-24T06:41:57.060Z,100174.63
2023-04-24T06:44:24.705Z,100173.09
2023-04-24T06:46:51.490Z,100185.91
2023-04-24T06:49:21.156Z,100182.09
2023-04-24T06:51:48.126Z,100183.94
2023-04-24T06:54:15.070Z,100184.75
2023-04-24T06:56:41.847Z,100187.13
2023-04-24T06:59:08.589Z,100189.53
2023-04-24T07:01:36.439Z,100183.16
2023-04-24T07:04:03.388Z,100194.72
2023-04-24T07:06:31.577Z,100198.75
2023-04-24T07:08:58.738Z,100201.66
2023-04-24T07:11:25.719Z,100211.59
2023-04-24T07:13:52.404Z,100211.38
2023-04-24T07:16:19.253Z,100216.91
2023-04-24T07:18:46.071Z,100221.63
2023-04-24T07:21:12.869Z,100226.97
2023-04-24T07:23:39.666Z,100228.84
2023-04-24T07:26:06.605Z,100233.34
2023-04-24T07:28:33.372Z,100246.38
2023-04-24T07:31:01.016Z,100243.22
2023-04-24T07:33:28.088Z,100249.44
2023-04-24T07:35:56.736Z,100245.13
2023-04-24T07:38:23.524Z,100265.00
2023-04-24T07:40:50.451Z,100272.22
2023-04-24T07:43:17.619Z,100272.63
2023-04-24T07:45:44.610Z,100266.19
2023-04-24T07:48:11.709Z,100287.38
2023-04-24T07:50:41.368Z,100286.72
2023-04-24T07:53:08.162Z,100285.66
2023-04-24T07:55:34.918Z,100294.22
2023-04-24T07:58:01.637Z,100298.22
2023-04-24T08:00:28.474Z,100297.31
2023-04-24T08:02:55.276Z,100304.03
2023-04-24T08:05:22.585Z,100304.75
2023-04-24T08:07:51.304Z,100313.03
2023-04-24T08:10:18.439Z,100319.34
2023-04-24T08:12:45.313Z,100307.47
2023-04-24T08:15:12.324Z,100317.50
2023-04-24T08:17:46.680Z,100310.28
2023-04-24T08:20:16.528Z,100327.03
2023-04-24T08:22:48.878Z,100333.91
2023-04-24T08:25:15.926Z,100344.69
2023-04-24T08:27:42.778Z,100350.41
2023-04-24T08:30:09.972Z,100350.25
2023-04-24T08:32:37.793Z,100352.16
2023-04-24T08:35:05.693Z,100348.66
2023-04-24T08:37:32.674Z,100356.59
2023-04-24T08:39:59.494Z,100357.38
2023-04-24T08:42:29.649Z,100370.09
2023-04-24T08:44:57.645Z,100370.50
2023-04-24T08:47:25.904Z,100376.00
2023-04-24T08:49:53.223Z,100375.28
2023-04-24T08:52:21.212Z,100368.25
2023-04-24T08:54:48.735Z,100383.22
2023-04-24T08:57:16.107Z,100383.13
2023-04-24T08:59:43.466Z,100374.63
2023-04-24T09:02:12.731Z,100381.84
2023-04-24T09:04:40.595Z,100381.56
2023-04-24T09:07:08.032Z,100381.91
2023-04-24T09:09:36.253Z,100391.41
2023-04-24T09:12:05.046Z,100388.63
2023-04-24T09:14:33.106Z,100414.41
2023-04-24T09:17:00.306Z,100404.78
2023-04-24T09:19:27.216Z,100406.34
2023-04-24T09:21:54.855Z,100414.47
2023-04-24T09:24:25.917Z,100419.53
2023-04-24T09:27:00.331Z,100416.19
2023-04-24T09:29:27.088Z,100417.47
2023-04-24T09:31:54.103Z,100419.41
2023-04-24T09:34:26.262Z,100418.59
2023-04-24T09:36:53.354Z,100423.44
2023-04-24T09:39:23.541Z,100426.69
2023-04-24T09:41:55.333Z,100431.09
2023-04-24T09:44:23.593Z,100429.03
2023-04-24T09:46:55.782Z,100431.13
2023-04-24T09:49:34.360Z,100444.03
2023-04-24T09:52:09.434Z,100432.00
2023-04-24T09:54:38.265Z,100454.16
2023-04-24T09:57:05.414Z,100452.69
2023-04-24T09:59:32.272Z,100451.06
2023-04-24T10:02:00.733Z,100454.84
2023-04-24T10:04:29.932Z,100462.78
2023-04-24T10:06:57.996Z,100458.22
2023-04-24T10:09:27.274Z,100466.59
2023-04-24T10:11:55.064Z,100473.94
2023-04-24T10:14:23.372Z,100463.38
2023-04-24T10:16:51.237Z,100471.31
2023-04-24T10:19:21.375Z,100474.53
2023-04-24T10:21:48.971Z,100481.38
2023-04-24T10:24:21.440Z,100482.50
2023-04-24T10:26:51.768Z,100482.81
2023-04-24T10:29:20.473Z,100480.44
2023-04-24T10:31:47.948Z,100484.19
2023-04-24T10:34:16.993Z,100475.84
2023-04-24T10:36:47.464Z,100487.75
2023-04-24T10:39:16.066Z,100491.41
2023-04-24T10:41:42.801Z,100497.88
2023-04-24T10:44:11.352Z,100501.84
2023-04-24T10:46:38.883Z,100505.97
2023-04-24T10:49:09.854Z,100506.28
2023-04-24T10:51:49.570Z,100503.06
2023-04-24T10:54:36.224Z,100507.84
2023-04-24T10:57:24.397Z,100516.91
2023-04-24T10:59:53.214Z,100515.00
2023-04-24T11:02:41.252Z,100518.31
2023-04-24T11:05:08.546Z,100518.97
2023-04-24T11:08:17.702Z,100528.41
2023-04-24T11:10:48.596Z,100523.53
2023-04-24T11:13:17.309Z,100531.34
2023-04-24T11:15:44.230Z,100534.19
2023-04-24T11:18:16.531Z,100528.19
2023-04-24T11:20:44.673Z,100532.75
2023-04-24T11:23:13.610Z,100534.72
2023-04-24T11:25:40.342Z,100540.53
2023-04-24T11:28:07.369Z,100540.16
2023-04-24T11:30:34.884Z,100548.47
2023-04-24T11:33:05.608Z,100548.63
2023-04-24T11:35:38.741Z,100550.97
2023-04-24T11:40:36.235Z,100552.72
2023-04-24T11:43:07.661Z,100555.06
2023-04-24T11:45:34.897Z,100552.47
2023-04-24T11:48:04.517Z,100551.19
2023-04-24T11:50:31.956Z,100559.78
2023-04-24T11:53:01.535Z,100547.91
2023-04-24T11:55:29.527Z,100554.47
2023-04-24T11:57:58.226Z,100557.44
2023-04-24T12:00:27.691Z,100558.22
2023-04-24T12:03:06.647Z,100560.94
2023-04-24T12:05:34.052Z,100566.97
2023-04-24T12:08:00.785Z,100559.41
2023-04-24T12:10:29.978Z,100564.47
2023-04-24T12:12:57.775Z,100568.97
2023-04-24T12:15:27.627Z,100563.75
2023-04-24T12:17:55.677Z,100563.53
2023-04-24T12:20:31.807Z,100550.19
2023-04-24T12:22:59.872Z,100569.00
2023-04-24T12:25:31.299Z,100560.31
2023-04-24T12:28:03.961Z,100564.03
2023-04-24T12:30:32.737Z,100566.72
2023-04-24T12:33:00.658Z,100562.50
2023-04-24T12:35:29.448Z,100567.41
2023-04-24T12:38:00.718Z,100572.53
2023-04-24T12:40:27.446Z,100567.31
2023-04-24T12:42:55.242Z,100568.06
2023-04-24T12:45:24.904Z,100563.00
2023-04-24T12:47:51.659Z,100568.75
2023-04-24T12:50:18.877Z,100559.13
2023-04-24T12:52:49.187Z,100565.81
2023-04-24T12:55:16.507Z,100572.59
2023-04-24T12:57:43.648Z,100571.19
2023-04-24T13:00:11.118Z,100574.72
2023-04-24T13:02:38.534Z,100571.28
2023-04-24T13:05:05.680Z,100573.84
2023-04-24T13:07:32.500Z,100568.91
2023-04-24T13:09:59.277Z,100565.88
2023-04-24T13:12:28.509Z,100563.63
2023-04-24T13:14:55.280Z,100575.50
2023-04-24T13:17:22.878Z,100579.53
2023-04-24T13:19:51.218Z,100579.09
2023-04-24T13:22:19.719Z,100580.13
2023-04-24T13:24:47.195Z,100569.72
2023-04-24T13:27:14.138Z,100578.56
2023-04-24T13:29:41.326Z,100581.81
2023-04-24T13:32:09.127Z,100572.16
2023-04-24T13:34:36.200Z,100581.44
2023-04-24T13:37:04.730Z,100570.03
2023-04-24T13:39:31.597Z,100572.88
2023-04-24T13:41:59.159Z,100572.44
2023-04-24T13:44:26.231Z,100571.28
2023-04-24T13:46:55.328Z,100568.44
2023-04-24T13:49:22.775Z,100562.16
2023-04-24T13:51:49.714Z,100566.44
2023-04-24T13:54:16.417Z,100569.44
2023-04-24T13:56:43.287Z,100556.41
2023-04-24T13:59:10.180Z,100558.53
2023-04-24T14:01:37.126Z,100560.84
2023-04-24T14:04:03.993Z,100567.22
2023-04-24T14:06:30.858Z,100561.88
2023-04-24T14:08:57.883Z,100563.75
2023-04-24T14:11:24.755Z,100563.22
2023-04-24T14:13:51.993Z,100556.78
2023-04-24T14:16:18.748Z,100556.94
2023-04-24T14:18:45.662Z,100559.97
2023-04-24T14:21:12.337Z,100561.09
2023-04-24T14:23:39.052Z,100564.06
2023-04-24T14:26:05.900Z,100561.00
2023-04-24T14:28:33.465Z,100559.22
2023-04-24T14:31:00.167Z,100565.13
2023-04-24T14:33:26.827Z,100560.66
2023-04-24T14:35:53.552Z,100560.38
2023-04-24T14:38:20.334Z,100559.34
2023-04-24T14:43:16.656Z,100560.94
2023-04-24T14:45:44.737Z,100574.06
2023-04-24T14:48:12.339Z,100573.28
2023-04-24T14:50:39.115Z,100582.47
2023-04-24T14:53:06.373Z,100578.09
2023-04-24T14:55:34.304Z,100584.03
2023-04-24T14:58:01.118Z,100584.13
2023-04-24T15:00:27.958Z,100578.09
2023-04-24T15:02:56.404Z,100567.66
2023-04-24T15:05:23.944Z,100579.56
2023-04-24T15:07:50.996Z,100572.50
2023-04-24T15:10:18.669Z,100588.94
2023-04-24T15:12:47.212Z,100576.31
2023-04-24T15:15:13.991Z,100574.16
2023-04-24T15:17:40.947Z,100580.13
2023-04-24T15:20:08.671Z,100575.53
2023-04-24T15:22:35.903Z,100579.06
2023-04-24T15:25:03.769Z,100580.03
2023-04-24T15:27:41.532Z,100577.16
2023-04-24T15:30:09.065Z,100585.69
2023-04-24T15:32:35.901Z,100572.09
2023-04-24T15:35:08.526Z,100581.84
2023-04-24T15:37:36.351Z,100584.97
2023-04-24T15:40:05.603Z,100590.47
2023-04-24T15:42:32.446Z,100589.81
2023-04-24T15:44:59.262Z,100598.66
2023-04-24T15:47:26.606Z,100600.69
2023-04-24T15:49:54.364Z,100593.41
2023-04-24T15:52:21.780Z,100595.56
2023-04-24T15:54:48.681Z,100592.19
2023-04-24T15:57:15.643Z,100595.91
2023-04-24T15:59:42.552Z,100602.06
2023-04-24T16:02:19.179Z,100605.03
2023-04-24T16:04:47.344Z,100605.25
2023-04-24T16:07:20.614Z,100592.81
2023-04-24T16:09:47.543Z,100624.88
2023-04-24T16:12:14.852Z,100611.41
2023-04-24T16:14:47.285Z,100607.09
2023-04-24T16:17:14.612Z,100617.34
2023-04-24T16:19:41.292Z,100614.50
2023-04-24T16:22:08.112Z,100622.59
2023-04-24T16:24:35.489Z,100621.09
2023-04-24T16:27:02.250Z,100612.31
2023-04-24T16:29:29.058Z,100610.19
2023-04-24T16:31:55.939Z,100609.16
2023-04-24T16:34:22.750Z,100629.34
2023-04-24T16:36:49.505Z,100621.72
2023-04-24T16:39:16.487Z,100632.28
2023-04-24T16:41:43.630Z,100636.97
2023-04-24T16:44:10.399Z,100627.63
2023-04-24T16:46:37.878Z,100628.91
2023-04-24T16:49:04.660Z,100634.19
2023-04-24T16:51:31.997Z,100641.31
2023-04-24T16:53:58.775Z,100637.16
2023-04-24T16:56:25.609Z,100632.94
2023-04-24T16:58:52.425Z,100643.19
2023-04-24T17:01:19.610Z,100631.75
2023-04-24T17:03:47.591Z,100630.31
2023-04-24T17:06:14.446Z,100635.38
2023-04-24T17:08:41.403Z,100633.88
2023-04-24T17:11:08.334Z,100626.22
2023-04-24T17:13:35.413Z,100635.19
2023-04-24T17:16:02.322Z,100632.94
2023-04-24T17:18:29.145Z,100634.72
2023-04-24T17:20:56.018Z,100633.84
2023-04-24T17:23:22.790Z,100636.31
2023-04-24T17:25:49.633Z,100640.28
2023-04-24T17:28:26.733Z,100649.69
2023-04-24T17:30:58.064Z,100645.03
2023-04-24T17:33:26.098Z,100648.22
2023-04-24T17:35:52.955Z,100634.56
2023-04-24T17:38:19.784Z,100639.31
2023-04-24T17:40:46.707Z,100641.63
2023-04-24T17:43:18.081Z,100637.84
2023-04-24T17:45:49.269Z,100643.41
2023-04-24T17:48:16.750Z,100647.13
2023-04-24T17:50:43.470Z,100655.44
2023-04-24T17:53:11.090Z,100654.66
2023-04-24T17:55:39.174Z,100647.50
2023-04-24T17:58:06.455Z,100658.25
2023-04-24T18:00:34.595Z,100650.72
2023-04-24T18:03:03.591Z,100655.75
2023-04-24T18:05:35.514Z,100655.72
2023-04-24T18:08:02.617Z,100663.03
2023-04-24T18:10:31.692Z,100664.47
2023-04-24T18:12:59.177Z,100659.03
2023-04-24T18:15:26.467Z,100671.03
2023-04-24T18:17:53.308Z,100662.75
2023-04-24T18:20:20.839Z,100657.75
2023-04-24T18:22:47.952Z,100677.63
2023-04-24T18:25:15.359Z,100681.75
2023-04-24T18:27:42.665Z,100675.19
2023-04-24T18:30:13.721Z,100682.56
2023-04-24T18:32:41.920Z,100688.00
2023-04-24T18:35:09.277Z,100680.97
2023-04-24T18:37:36.293Z,100689.72
2023-04-24T18:40:05.158Z,100697.75
2023-04-24T18:42:33.242Z,100696.31
2023-04-24T18:45:01.729Z,100702.56
2023-04-24T18:47:29.171Z,100702.56
2023-04-24T18:49:56.404Z,100704.00
2023-04-24T18:52:23.933Z,100704.13
2023-04-24T18:54:51.022Z,100711.06
2023-04-24T18:57:17.839Z,100707.78
2023-04-24T18:59:44.612Z,100713.66
2023-04-24T19:02:11.846Z,100721.47
2023-04-24T19:04:38.691Z,100724.88
2023-04-24T19:07:05.611Z,100738.63
2023-04-24T19:09:32.446Z,100735.19
2023-04-24T19:12:00.263Z,100736.56
2023-04-24T19:14:27.098Z,100739.34
2023-04-24T19:16:53.981Z,100742.34
2023-04-24T19:19:21.551Z,100750.31
2023-04-24T19:21:48.445Z,100744.75
2023-04-24T19:24:15.385Z,100748.38
2023-04-24T19:26:42.223Z,100747.56
2023-04-24T19:29:08.879Z,100750.53
2023-04-24T19:31:35.796Z,100747.75
2023-04-24T19:34:02.554Z,100753.13
2023-04-24T19:36:30.101Z,100749.56
2023-04-24T19:38:56.853Z,100748.56
2023-04-24T19:41:23.836Z,100749.94
2023-04-24T19:43:50.797Z,100761.94
2023-04-24T19:46:17.962Z,100746.97
2023-04-24T19:48:44.762Z,100765.28
2023-04-24T19:51:11.489Z,100754.94
2023-04-24T19:53:38.281Z,100766.97
2023-04-24T19:56:05.243Z,100757.19
2023-04-24T19:58:31.877Z,100764.50
2023-04-24T20:00:58.753Z,100765.81
2023-04-24T20:03:33.429Z,100764.94
2023-04-24T20:06:00.956Z,100777.41
2023-04-24T20:08:27.706Z,100773.47
2023-04-24T20:10:57.647Z,100777.88
2023-04-24T20:13:28.264Z,100765.06
2023-04-24T20:15:55.144Z,100764.16
2023-04-24T20:18:22.030Z,100772.78
2023-04-24T20:20:49.038Z,100778.94
2023-04-24T20:23:24.593Z,100762.72
2023-04-24T20:25:57.960Z,100771.44
2023-04-24T20:28:28.470Z,100777.63
2023-04-24T20:31:20.063Z,100769.16
2023-04-24T20:33:47.080Z,100765.50
2023-04-24T20:36:17.168Z,100778.41
2023-04-24T20:38:44.040Z,100766.53
2023-04-24T20:41:10.852Z,100771.44
2023-04-24T20:43:37.619Z,100766.53
2023-04-24T20:46:04.716Z,100770.03
2023-04-24T20:48:31.732Z,100774.69
2023-04-24T20:51:00.871Z,100777.84
2023-04-24T20:53:28.953Z,100773.31
2023-04-24T20:55:55.880Z,100773.91
2023-04-24T20:58:24.037Z,100768.09
2023-04-24T21:00:51.784Z,100777.25
2023-04-24T21:03:18.862Z,100780.50
2023-04-24T21:05:45.936Z,100771.19
2023-04-24T21:08:13.022Z,100771.38
2023-04-24T21:10:40.123Z,100764.91
2023-04-24T21:13:09.215Z,100762.06
2023-04-24T21:15:36.221Z,100766.28
2023-04-24T21:18:03.675Z,100765.09
2023-04-24T21:20:33.063Z,100767.28
2023-04-24T21:23:02.984Z,100753.06
2023-04-24T21:25:30.277Z,100764.41
2023-04-24T21:27:58.557Z,100763.41
2023-04-24T21:30:25.668Z,100758.91
2023-04-24T21:32:55.041Z,100760.00
2023-04-24T21:35:21.918Z,100746.44
2023-04-24T21:37:48.738Z,100744.28
2023-04-24T21:40:16.065Z,100751.69
2023-04-24T21:42:43.348Z,100753.22
2023-04-24T21:45:10.730Z,100753.06
2023-04-24T21:47:37.710Z,100750.44
2023-04-24T21:50:05.625Z,100751.50
2023-04-24T21:52:32.645Z,100741.19
2023-04-24T21:54:59.406Z,100737.69
2023-04-24T21:57:28.517Z,100746.75
2023-04-24T21:59:55.929Z,100749.34
2023-04-24T22:02:22.812Z,100750.41
2023-04-24T22:04:50.484Z,100756.59
2023-04-24T22:07:17.552Z,100751.03
2023-04-24T22:09:44.435Z,100750.66
2023-04-24T22:12:11.244Z,100759.63
2023-04-24T22:14:38.234Z,100760.41
2023-04-24T22:17:09.616Z,100750.03
2023-04-24T22:19:36.424Z,100760.28
2023-04-24T22:22:03.206Z,100754.06
2023-04-24T22:24:29.996Z,100765.25
2023-04-24T22:26:56.955Z,100759.88
2023-04-24T22:29:24.441Z,100756.81
2023-04-24T22:31:51.706Z,100755.63
2023-04-24T22:34:19.708Z,100746.25
2023-04-24T22:36:46.536Z,100750.56
2023-04-24T22:39:15.892Z,100752.75
2023-04-24T22:41:43.014Z,100748.91
2023-04-24T22:44:11.057Z,100760.69
2023-04-24T22:46:38.101Z,100756.09
2023-04-24T22:49:05.212Z,100761.25
2023-04-24T22:51:35.270Z,100750.81
2023-04-24T22:54:04.252Z,100761.81
2023-04-24T22:56:31.770Z,100750.88
2023-04-24T22:58:58.892Z,100743.53
2023-04-24T23:01:33.389Z,100745.22
2023-04-24T23:04:00.314Z,100742.88
2023-04-24T23:06:27.081Z,100739.25
2023-04-24T23:08:53.974Z,100740.19
2023-04-24T23:11:22.028Z,100752.03
2023-04-24T23:13:49.794Z,100751.03
2023-04-24T23:16:16.868Z,100751.63
2023-04-24T23:18:43.549Z,100751.38
2023-04-24T23:21:10.427Z,100751.31
2023-04-24T23:23:37.540Z,100743.75
2023-04-24T23:26:04.327Z,100745.13
2023-04-24T23:28:31.189Z,100749.72
2023-04-24T23:30:57.934Z,100756.84
2023-04-24T23:33:24.816Z,100754.78
2023-04-24T23:35:52.686Z,100759.75
2023-04-24T23:38:19.851Z,100763.13
2023-04-24T23:40:46.659Z,100766.31
2023-04-24T23:43:13.483Z,100763.38
2023-04-24T23:45:40.635Z,100761.91
2023-04-24T23:48:07.579Z,100773.41
2023-04-24T23:50:34.684Z,100759.75
2023-04-24T23:53:01.510Z,100769.38
2023-04-24T23:55:28.487Z,100772.81
2023-04-24T23:57:55.613Z,100775.03
